Terminal Aerodrome Forecast
Issued by NWS

Home | Current Version | Previous Version | Text Only | Print | Product List | Glossary Off
Versions: 1 2 3 4 5 6 7 8 9 10 11 12 13 14 15 16 17 18 19 20 21 22 23 24

648
FTUS43 KLOT 031731
TAFDPA
TAF
KDPA 031731Z 0318/0418 28015G25KT P6SM VCSH OVC012
      TEMPO 0318/0321 5SM -SHRASN BKN008
     FM040100 29012G18KT P6SM OVC010
     FM041500 28011KT P6SM SCT018 BKN120=

USA.gov is the U.S. government's official web portal to all federal, state and local government web resources and services.